Time;durP1;ratioP1;P1;durP2;ratioP2;P2;SDS_P1;SDS_P2;PMS_P1;PMS_P2;Temp;Humidity;BMP_temperature;BMP_pressure;BME280_temperature;BME280_humidity;BME280_pressure;Samples;Min_cycle;Max_cycle;Signal;HPM_P1;HPM_P2
2023/04/01 00:00:25;;;;;;;3.23;1.67;;;10.20;99.90;;;;;;5055264;28;20447;-62
2023/04/01 00:02:52;;;;;;;3.53;1.80;;;10.20;99.90;;;;;;5055818;28;20534;-61
2023/04/01 00:05:18;;;;;;;2.35;1.75;;;10.20;99.90;;;;;;5054991;28;20538;-62
2023/04/01 00:07:47;;;;;;;3.43;1.47;;;10.20;99.90;;;;;;5054421;28;20208;-61
2023/04/01 00:10:14;;;;;;;2.90;1.60;;;10.20;99.90;;;;;;5054734;28;20445;-61
2023/04/01 00:12:41;;;;;;;5.40;2.30;;;10.20;99.90;;;;;;5053948;28;20448;-61
2023/04/01 00:15:10;;;;;;;2.77;1.77;;;10.20;99.90;;;;;;5054080;28;20222;-61
2023/04/01 00:17:37;;;;;;;3.73;1.67;;;10.20;99.90;;;;;;5054572;28;20563;-61
2023/04/01 00:20:08;;;;;;;3.63;1.40;;;10.20;99.90;;;;;;5054757;28;20582;-61
2023/04/01 00:22:34;;;;;;;2.40;2.10;;;10.20;99.90;;;;;;5054638;28;20428;-61
2023/04/01 00:25:03;;;;;;;3.87;1.93;;;10.20;99.90;;;;;;5086168;22;20484;-62
2023/04/01 00:27:30;;;;;;;2.75;1.83;;;10.20;99.90;;;;;;5075959;28;20445;-63
2023/04/01 00:29:57;;;;;;;3.10;1.70;;;10.20;99.90;;;;;;5078336;28;20201;-62
2023/04/01 00:32:23;;;;;;;4.07;1.40;;;10.20;99.90;;;;;;5078235;28;20439;-63
2023/04/01 00:34:52;;;;;;;4.53;1.20;;;10.20;99.90;;;;;;5078927;28;20466;-63
2023/04/01 00:37:19;;;;;;;3.30;1.80;;;10.20;99.90;;;;;;5077943;28;20490;-63
2023/04/01 00:39:46;;;;;;;3.55;1.55;;;10.20;99.90;;;;;;5078354;28;20205;-63
2023/04/01 00:42:14;;;;;;;3.40;1.50;;;10.20;99.90;;;;;;5078107;28;20228;-62
2023/04/01 00:44:41;;;;;;;5.03;3.43;;;10.20;99.90;;;;;;5077319;28;20467;-63
2023/04/01 00:47:08;;;;;;;5.27;1.60;;;10.20;99.90;;;;;;5077727;28;20514;-63
2023/04/01 00:49:39;;;;;;;2.70;1.40;;;10.20;99.90;;;;;;5076960;28;20455;-63
2023/04/01 00:52:08;;;;;;;4.10;1.40;;;10.20;99.90;;;;;;5078639;28;20461;-63
2023/04/01 00:54:37;;;;;;;2.07;1.33;;;10.20;99.90;;;;;;5078295;28;20458;-63
2023/04/01 00:57:08;;;;;;;1.90;1.17;;;10.20;99.90;;;;;;5077877;28;20471;-63
2023/04/01 00:59:41;;;;;;;3.77;1.33;;;10.10;99.90;;;;;;5078434;28;20427;-63
2023/04/01 01:02:11;;;;;;;2.63;1.92;;;10.10;99.90;;;;;;5077872;28;20789;-63
2023/04/01 01:04:39;;;;;;;6.03;1.75;;;10.10;99.90;;;;;;5079808;28;20221;-63
2023/04/01 01:07:18;;;;;;;1.95;1.00;;;10.00;99.90;;;;;;5078057;28;20534;-65
2023/04/01 01:09:56;;;;;;;1.00;0.80;;;10.00;99.90;;;;;;5078820;28;20197;-63
2023/04/01 01:12:29;;;;;;;2.88;1.15;;;10.00;99.90;;;;;;5077987;28;20181;-63
2023/04/01 01:15:07;;;;;;;1.20;1.10;;;10.00;99.90;;;;;;5077914;28;20252;-63
2023/04/01 01:17:44;;;;;;;1.58;0.75;;;9.90;99.90;;;;;;5079276;28;20215;-62
2023/04/01 01:20:54;;;;;;;2.03;1.10;;;9.90;99.90;;;;;;5078640;28;20242;-62
2023/04/01 01:24:02;;;;;;;2.30;0.95;;;9.90;99.90;;;;;;5079255;28;20211;-63
2023/04/01 01:26:50;;;;;;;2.97;1.90;;;9.90;99.90;;;;;;5080681;28;20224;-63
2023/04/01 01:29:47;;;;;;;4.47;1.02;;;9.80;99.90;;;;;;5084325;28;20185;-63
2023/04/01 01:32:26;;;;;;;1.30;1.20;;;9.80;99.90;;;;;;5087422;28;20205;-63
2023/04/01 01:34:57;;;;;;;2.75;1.17;;;9.80;99.90;;;;;;5087457;28;20224;-63
2023/04/01 01:37:28;;;;;;;3.63;1.10;;;9.80;99.90;;;;;;5085936;28;20234;-63
2023/04/01 01:39:57;;;;;;;1.02;0.90;;;9.80;99.90;;;;;;5076398;28;20199;-63
2023/04/01 01:42:26;;;;;;;1.45;1.10;;;9.80;99.90;;;;;;5082953;28;20287;-65
2023/04/01 01:44:56;;;;;;;1.15;0.80;;;9.80;99.90;;;;;;5080730;28;20249;-63
2023/04/01 01:47:24;;;;;;;2.03;1.50;;;9.80;99.90;;;;;;5080218;28;20304;-63
2023/04/01 01:49:53;;;;;;;3.03;1.20;;;9.80;99.90;;;;;;5078007;28;20215;-63
2023/04/01 01:52:19;;;;;;;1.98;1.00;;;9.80;99.90;;;;;;5078820;28;20196;-63
2023/04/01 01:54:52;;;;;;;2.45;1.20;;;9.80;99.90;;;;;;5077609;28;20721;-63
2023/04/01 01:57:21;;;;;;;4.97;1.42;;;9.80;99.90;;;;;;5077366;28;20592;-63
2023/04/01 01:59:49;;;;;;;2.47;1.25;;;9.90;99.90;;;;;;5077800;28;20212;-63
2023/04/01 02:02:18;;;;;;;3.13;1.23;;;9.90;99.90;;;;;;5079050;28;20255;-63
2023/04/01 02:04:46;;;;;;;1.20;0.80;;;9.90;99.90;;;;;;5078161;28;20240;-62
2023/04/01 02:07:19;;;;;;;3.15;1.13;;;9.90;99.90;;;;;;5078197;28;20201;-63
2023/04/01 02:09:46;;;;;;;4.03;1.23;;;9.90;99.90;;;;;;5076544;28;20215;-63
2023/04/01 02:12:17;;;;;;;2.22;1.02;;;9.90;99.90;;;;;;5077183;28;20201;-62
2023/04/01 02:14:48;;;;;;;1.33;1.20;;;9.80;99.90;;;;;;5076259;28;20225;-62
2023/04/01 02:17:18;;;;;;;5.20;1.40;;;9.90;99.90;;;;;;5076454;28;20279;-62
2023/04/01 02:19:50;;;;;;;2.15;1.02;;;9.90;99.90;;;;;;5077598;28;20189;-62
2023/04/01 02:22:22;;;;;;;2.35;1.38;;;9.90;99.90;;;;;;5078423;28;20191;-62
2023/04/01 02:24:50;;;;;;;1.20;1.10;;;9.90;99.90;;;;;;5078248;28;20229;-62
2023/04/01 02:27:19;;;;;;;2.33;1.00;;;9.90;99.90;;;;;;5079144;28;20446;-63
2023/04/01 02:29:46;;;;;;;1.00;0.90;;;9.90;99.90;;;;;;5078317;28;20209;-64
2023/04/01 02:32:15;;;;;;;4.63;1.52;;;9.90;99.90;;;;;;5077305;28;20685;-63
2023/04/01 02:34:43;;;;;;;4.15;1.20;;;9.90;99.90;;;;;;5077742;28;20225;-63
2023/04/01 02:37:10;;;;;;;2.33;0.85;;;9.90;99.90;;;;;;5076616;28;20221;-62
2023/04/01 02:39:37;;;;;;;2.90;1.25;;;9.90;99.90;;;;;;5075707;28;20197;-63
2023/04/01 02:42:04;;;;;;;2.20;1.23;;;9.90;99.90;;;;;;5075047;28;20212;-63
2023/04/01 02:44:32;;;;;;;2.70;1.30;;;9.90;99.90;;;;;;5075103;28;20705;-63
2023/04/01 02:46:59;;;;;;;2.88;1.40;;;9.90;99.90;;;;;;5075280;28;20540;-64
2023/04/01 02:49:26;;;;;;;1.93;1.00;;;10.00;99.90;;;;;;5074313;28;20561;-63
2023/04/01 02:51:53;;;;;;;1.75;1.15;;;10.00;99.90;;;;;;5074358;28;20499;-63
2023/04/01 02:54:20;;;;;;;3.10;1.20;;;10.00;99.90;;;;;;5075104;28;20205;-62
2023/04/01 02:56:47;;;;;;;1.50;0.90;;;10.00;99.90;;;;;;5075505;28;20220;-63
2023/04/01 02:59:14;;;;;;;2.60;1.10;;;10.00;99.90;;;;;;5075594;28;20201;-62
2023/04/01 03:01:42;;;;;;;2.50;1.10;;;10.00;99.90;;;;;;5076223;28;20201;-64
2023/04/01 03:04:09;;;;;;;1.58;0.80;;;10.00;99.90;;;;;;5075934;28;20200;-64
2023/04/01 03:06:35;;;;;;;3.45;0.85;;;10.00;99.90;;;;;;5074928;28;20197;-63
2023/04/01 03:09:03;;;;;;;6.75;1.30;;;10.00;99.90;;;;;;5074572;28;20667;-63
2023/04/01 03:11:29;;;;;;;2.13;1.10;;;10.00;99.90;;;;;;5074567;28;20292;-63
2023/04/01 03:13:56;;;;;;;3.42;1.60;;;10.00;99.90;;;;;;5074566;28;20443;-63
2023/04/01 03:16:23;;;;;;;1.67;0.90;;;10.00;99.90;;;;;;5074885;28;20217;-63
2023/04/01 03:18:52;;;;;;;1.25;1.15;;;10.00;99.90;;;;;;5075192;28;20212;-63
2023/04/01 03:21:21;;;;;;;2.50;0.97;;;10.00;99.90;;;;;;5074613;28;20205;-63
2023/04/01 03:23:47;;;;;;;1.23;0.70;;;10.00;99.90;;;;;;5074308;28;20462;-62
2023/04/01 03:26:14;;;;;;;1.13;1.02;;;10.00;99.90;;;;;;5074787;28;20483;-62
2023/04/01 03:28:41;;;;;;;3.30;1.17;;;10.00;99.90;;;;;;5074843;28;20201;-63
2023/04/01 03:31:08;;;;;;;1.25;0.95;;;10.00;99.90;;;;;;5074416;28;20204;-63
2023/04/01 03:33:35;;;;;;;2.05;1.08;;;10.00;99.90;;;;;;5074175;28;20201;-63
2023/04/01 03:36:06;;;;;;;3.50;1.38;;;10.00;99.90;;;;;;5073958;28;20233;-62
2023/04/01 03:38:33;;;;;;;1.33;1.08;;;9.90;99.90;;;;;;5074051;28;20675;-61
2023/04/01 03:40:59;;;;;;;5.03;1.23;;;9.90;99.90;;;;;;5074522;28;20208;-63
2023/04/01 03:43:26;;;;;;;1.70;1.00;;;9.90;99.90;;;;;;5074092;28;20212;-63
2023/04/01 03:45:54;;;;;;;2.00;0.90;;;9.90;99.90;;;;;;5074212;28;20224;-63
2023/04/01 03:48:21;;;;;;;2.27;1.07;;;9.90;99.90;;;;;;5074596;28;20443;-63
2023/04/01 03:50:48;;;;;;;2.30;1.00;;;9.90;99.90;;;;;;5074573;28;20435;-63
2023/04/01 03:53:16;;;;;;;1.30;1.00;;;9.90;99.90;;;;;;5073633;28;20216;-63
2023/04/01 03:55:43;;;;;;;2.60;1.10;;;9.90;99.90;;;;;;5073787;28;20221;-62
2023/04/01 03:58:10;;;;;;;1.15;1.05;;;9.90;99.90;;;;;;5073537;28;20479;-63
2023/04/01 04:00:37;;;;;;;2.47;1.83;;;9.90;99.90;;;;;;5073699;28;20219;-60
2023/04/01 04:03:04;;;;;;;3.75;1.10;;;9.90;99.90;;;;;;5073550;28;20567;-61
2023/04/01 04:05:31;;;;;;;2.50;1.37;;;9.80;99.90;;;;;;5074252;28;20251;-63
2023/04/01 04:11:32;;;;;;;1.80;1.20;;;9.80;99.90;;;;;;5099340;28;20580;-63
2023/04/01 04:13:59;;;;;;;4.03;1.50;;;9.80;99.90;;;;;;5099490;28;20489;-63
2023/04/01 04:16:26;;;;;;;2.92;1.20;;;9.80;99.90;;;;;;5097495;28;20307;-64
2023/04/01 04:18:53;;;;;;;3.90;1.60;;;9.80;99.90;;;;;;5097826;28;20782;-64
2023/04/01 04:21:19;;;;;;;2.20;1.58;;;9.80;99.90;;;;;;5097193;28;20446;-61
2023/04/01 04:23:46;;;;;;;5.13;1.40;;;9.80;99.90;;;;;;5097660;28;20202;-62
2023/04/01 04:26:14;;;;;;;1.10;1.00;;;9.80;99.90;;;;;;5097842;28;20469;-63
2023/04/01 04:28:43;;;;;;;4.13;1.30;;;9.80;99.90;;;;;;5109195;28;20439;-64
2023/04/01 04:31:09;;;;;;;5.97;1.27;;;9.80;99.90;;;;;;5109718;28;20492;-63
2023/04/01 04:33:37;;;;;;;1.40;1.30;;;9.80;99.90;;;;;;5109702;28;20444;-63
2023/04/01 04:36:05;;;;;;;1.90;1.30;;;9.80;99.90;;;;;;5109863;28;20534;-63
2023/04/01 04:38:32;;;;;;;2.65;1.10;;;9.80;99.90;;;;;;5110784;28;20215;-63
2023/04/01 04:40:59;;;;;;;1.92;1.25;;;9.80;99.90;;;;;;5102503;28;20196;-63
2023/04/01 04:43:26;;;;;;;4.27;1.33;;;9.80;99.90;;;;;;5092586;28;20201;-63
2023/04/01 04:45:54;;;;;;;1.20;0.90;;;9.80;99.90;;;;;;5090204;28;20465;-63
2023/04/01 04:48:21;;;;;;;2.30;1.30;;;9.80;99.90;;;;;;5090946;28;20451;-62
2023/04/01 04:50:49;;;;;;;4.80;1.20;;;9.80;99.90;;;;;;5091175;28;20223;-62
2023/04/01 04:53:16;;;;;;;4.25;1.25;;;9.70;99.90;;;;;;5091228;28;20438;-62
2023/04/01 04:55:46;;;;;;;2.85;1.20;;;9.70;99.90;;;;;;5090156;28;20710;-62
2023/04/01 04:58:13;;;;;;;1.67;1.30;;;9.70;99.90;;;;;;5091324;28;20197;-62
2023/04/01 05:00:40;;;;;;;1.87;1.30;;;9.70;99.90;;;;;;5093404;28;20442;-62
2023/04/01 05:03:09;;;;;;;3.70;1.10;;;9.70;99.90;;;;;;5096878;28;20446;-62
2023/04/01 05:05:36;;;;;;;5.00;1.52;;;9.70;99.90;;;;;;5092188;28;20530;-62
2023/04/01 05:08:03;;;;;;;1.23;1.10;;;9.70;99.90;;;;;;5090882;28;20211;-61
2023/04/01 05:10:31;;;;;;;2.25;1.50;;;9.70;99.90;;;;;;5090093;28;20224;-62
2023/04/01 05:12:58;;;;;;;1.90;1.15;;;9.70;99.90;;;;;;5090486;28;20386;-63
2023/04/01 05:15:25;;;;;;;1.90;1.30;;;9.60;99.90;;;;;;5091227;28;20217;-63
2023/04/01 05:17:52;;;;;;;2.90;1.80;;;9.60;99.90;;;;;;5089974;28;20208;-63
2023/04/01 05:20:20;;;;;;;4.07;1.52;;;9.60;99.90;;;;;;5094113;28;20204;-62
2023/04/01 05:22:47;;;;;;;1.40;1.20;;;9.70;99.90;;;;;;5082141;28;20201;-62
2023/04/01 05:25:13;;;;;;;2.53;1.30;;;9.60;99.90;;;;;;5081713;28;20478;-63
2023/04/01 05:27:40;;;;;;;3.90;1.23;;;9.70;99.90;;;;;;5083543;28;20205;-63
2023/04/01 05:30:08;;;;;;;1.67;1.23;;;9.70;99.90;;;;;;5083720;28;20475;-63
2023/04/01 05:32:35;;;;;;;1.27;1.17;;;9.70;99.90;;;;;;5084545;28;20205;-63
2023/04/01 05:35:01;;;;;;;2.53;1.17;;;9.70;99.90;;;;;;5085915;28;20217;-64
2023/04/01 05:37:30;;;;;;;1.90;1.40;;;9.70;99.90;;;;;;5084049;28;20446;-62
2023/04/01 05:39:58;;;;;;;4.93;1.25;;;9.80;99.90;;;;;;5084372;28;20232;-63
2023/04/01 05:42:25;;;;;;;2.20;0.90;;;9.80;99.90;;;;;;5086609;28;20197;-63
2023/04/01 05:44:52;;;;;;;2.60;1.10;;;9.80;99.90;;;;;;5088459;28;20251;-64
2023/04/01 05:47:19;;;;;;;1.80;1.20;;;9.90;99.90;;;;;;5089335;28;20516;-63
2023/04/01 05:49:45;;;;;;;1.30;1.20;;;9.90;99.90;;;;;;5088329;28;20501;-62
2023/04/01 05:52:12;;;;;;;5.23;1.17;;;9.90;99.90;;;;;;5089096;28;20498;-64
2023/04/01 05:54:40;;;;;;;3.47;1.50;;;10.00;99.90;;;;;;5091497;28;20531;-63
2023/04/01 05:57:07;;;;;;;3.07;1.40;;;10.00;99.90;;;;;;5087839;28;20229;-62
2023/04/01 05:59:34;;;;;;;1.97;1.30;;;10.10;99.90;;;;;;5088916;28;20439;-62
2023/04/01 06:02:02;;;;;;;2.95;1.40;;;10.10;99.90;;;;;;5092613;28;20446;-62
2023/04/01 06:04:36;;;;;;;2.53;1.30;;;10.20;99.90;;;;;;5091848;28;20220;-63
2023/04/01 06:07:11;;;;;;;2.70;1.43;;;10.30;99.90;;;;;;5091081;28;20431;-62
2023/04/01 06:09:39;;;;;;;2.13;1.33;;;10.30;99.90;;;;;;5090722;28;20455;-62
2023/04/01 06:12:43;;;;;;;3.30;1.50;;;10.40;99.90;;;;;;5089006;28;20458;-64
2023/04/01 06:15:28;;;;;;;2.10;1.37;;;10.50;99.90;;;;;;5082725;28;20467;-63
2023/04/01 06:18:15;;;;;;;1.33;1.23;;;10.60;99.90;;;;;;5083179;28;20435;-64
2023/04/01 06:20:52;;;;;;;2.63;1.30;;;10.70;99.90;;;;;;5084407;28;20416;-63
2023/04/01 06:23:44;;;;;;;1.40;1.00;;;10.80;99.90;;;;;;5082451;28;20423;-62
2023/04/01 06:26:25;;;;;;;2.43;1.30;;;10.90;99.90;;;;;;5095509;22;20496;-65
2023/04/01 06:29:09;;;;;;;2.40;1.40;;;11.00;99.90;;;;;;5055903;28;20432;-65
2023/04/01 06:31:58;;;;;;;1.90;1.30;;;11.10;99.90;;;;;;5055157;28;20472;-65
2023/04/01 06:34:43;;;;;;;2.05;1.20;;;11.20;99.90;;;;;;5053876;28;20435;-66
2023/04/01 06:37:21;;;;;;;1.77;1.23;;;11.30;99.90;;;;;;5054689;28;20609;-65
2023/04/01 06:39:58;;;;;;;3.30;1.43;;;11.30;99.90;;;;;;5054973;28;20441;-65
2023/04/01 06:42:49;;;;;;;3.50;1.30;;;11.40;99.90;;;;;;5054360;28;20906;-64
2023/04/01 06:45:29;;;;;;;1.60;1.50;;;11.40;99.90;;;;;;5054411;28;20468;-64
2023/04/01 06:48:11;;;;;;;1.80;1.30;;;11.40;99.90;;;;;;5054599;28;20905;-64
2023/04/01 06:50:49;;;;;;;1.30;1.20;;;11.50;99.90;;;;;;5055043;28;20515;-64
2023/04/01 06:53:22;;;;;;;1.43;1.33;;;11.50;99.90;;;;;;5054690;28;20535;-66
2023/04/01 06:55:54;;;;;;;2.47;1.50;;;11.60;99.90;;;;;;5054452;28;20464;-66
2023/04/01 06:58:25;;;;;;;1.77;1.30;;;11.70;99.90;;;;;;5054690;28;20443;-66
2023/04/01 07:00:55;;;;;;;4.00;1.40;;;11.70;99.90;;;;;;5054468;28;20424;-64
2023/04/01 07:03:30;;;;;;;2.87;1.90;;;11.80;99.90;;;;;;5053942;28;20543;-65
2023/04/01 07:06:02;;;;;;;2.20;1.27;;;11.90;99.90;;;;;;5054387;28;20517;-64
2023/04/01 07:08:30;;;;;;;2.90;1.23;;;12.00;99.90;;;;;;5054599;28;20431;-66
2023/04/01 07:11:02;;;;;;;2.90;1.93;;;12.10;99.90;;;;;;5054566;28;20487;-66
2023/04/01 07:13:34;;;;;;;2.20;1.30;;;12.10;99.90;;;;;;5055263;28;20482;-65
2023/04/01 07:16:12;;;;;;;3.57;2.10;;;12.10;99.90;;;;;;5054396;28;20471;-66
2023/04/01 07:18:45;;;;;;;3.77;1.80;;;12.10;99.90;;;;;;5054810;28;20518;-65
2023/04/01 07:21:23;;;;;;;2.57;1.20;;;12.10;99.90;;;;;;5054030;28;20428;-65
2023/04/01 07:23:51;;;;;;;2.17;1.30;;;12.10;99.90;;;;;;5057798;28;20436;-66
2023/04/01 07:26:21;;;;;;;3.40;1.60;;;12.10;99.90;;;;;;5065046;28;20480;-66
2023/04/01 07:28:51;;;;;;;2.00;1.67;;;12.10;99.90;;;;;;5060198;28;20444;-67
2023/04/01 07:31:31;;;;;;;2.77;1.37;;;12.10;99.90;;;;;;5064041;28;20490;-65
2023/04/01 07:34:07;;;;;;;3.20;1.20;;;12.10;99.90;;;;;;5063639;28;20435;-65
2023/04/01 07:36:39;;;;;;;4.20;1.20;;;12.10;99.90;;;;;;5064221;28;20474;-65
2023/04/01 07:39:17;;;;;;;3.30;1.23;;;12.00;99.90;;;;;;5060632;28;20455;-66
2023/04/01 07:41:51;;;;;;;1.73;1.53;;;12.00;99.90;;;;;;5060059;28;20507;-62
2023/04/01 07:44:26;;;;;;;3.70;2.20;;;12.00;99.90;;;;;;5061079;28;20431;-67
2023/04/01 07:47:16;;;;;;;2.10;1.60;;;12.10;99.90;;;;;;5059796;28;20434;-67
2023/04/01 07:49:57;;;;;;;1.70;1.50;;;12.20;99.90;;;;;;5056994;28;20606;-64
2023/04/01 07:52:31;;;;;;;4.90;3.00;;;12.30;99.90;;;;;;5055766;28;20835;-66
2023/04/01 07:55:06;;;;;;;5.13;2.60;;;12.40;99.90;;;;;;5054756;28;20474;-64
2023/04/01 07:57:39;;;;;;;4.50;2.80;;;12.50;99.90;;;;;;5056839;28;20428;-64
2023/04/01 08:00:16;;;;;;;2.80;1.83;;;12.60;99.90;;;;;;5057599;28;20435;-63
2023/04/01 08:02:58;;;;;;;2.40;1.47;;;12.80;99.90;;;;;;5054142;28;20433;-63
2023/04/01 08:05:28;;;;;;;1.90;1.67;;;12.90;99.90;;;;;;5053561;28;20459;-64
2023/04/01 08:08:03;;;;;;;2.90;1.73;;;13.10;99.90;;;;;;5055447;28;20451;-64
2023/04/01 08:10:37;;;;;;;3.73;2.20;;;13.20;99.90;;;;;;5053994;28;20486;-64
2023/04/01 08:13:15;;;;;;;4.00;1.63;;;13.40;99.90;;;;;;5053798;28;20432;-64
2023/04/01 08:15:53;;;;;;;3.30;1.57;;;13.60;99.90;;;;;;5054116;28;20467;-64
2023/04/01 08:18:35;;;;;;;2.50;1.80;;;13.70;99.90;;;;;;5053622;28;20432;-65
2023/04/01 08:21:03;;;;;;;3.00;1.73;;;13.90;99.90;;;;;;5053996;28;20467;-66
2023/04/01 08:23:34;;;;;;;3.03;1.70;;;14.00;99.90;;;;;;5053490;28;20447;-65
2023/04/01 08:26:07;;;;;;;2.00;1.23;;;14.20;99.90;;;;;;5052926;28;20506;-66
2023/04/01 08:28:40;;;;;;;1.83;1.20;;;14.40;99.90;;;;;;5053383;28;20436;-70
2023/04/01 08:31:13;;;;;;;3.40;1.57;;;14.60;99.90;;;;;;5052917;28;20478;-67
2023/04/01 08:33:42;;;;;;;2.10;1.13;;;14.60;99.90;;;;;;5053273;28;20520;-65
2023/04/01 08:36:13;;;;;;;0.97;0.90;;;14.60;99.90;;;;;;5052778;28;20835;-65
2023/04/01 08:38:44;;;;;;;2.43;1.20;;;14.70;99.90;;;;;;5053421;28;20894;-65
2023/04/01 08:41:41;;;;;;;1.60;1.10;;;14.70;99.90;;;;;;5052828;28;20428;-66
2023/04/01 08:44:59;;;;;;;1.50;1.20;;;14.70;99.90;;;;;;5009240;28;20457;-65
2023/04/01 08:47:47;;;;;;;2.33;1.53;;;14.70;99.90;;;;;;5052444;28;20913;-65
2023/04/01 08:50:47;;;;;;;1.83;0.90;;;14.70;99.90;;;;;;5052962;28;20436;-66
2023/04/01 08:53:25;;;;;;;1.43;0.70;;;14.80;99.90;;;;;;5052583;28;20516;-66
2023/04/01 08:56:04;;;;;;;3.13;1.23;;;14.80;99.90;;;;;;5053580;28;20472;-67
2023/04/01 08:58:50;;;;;;;1.80;1.30;;;14.90;99.90;;;;;;5056716;28;20924;-66
2023/04/01 09:01:31;;;;;;;2.50;0.90;;;14.90;99.90;;;;;;5056721;28;20515;-66
2023/04/01 09:04:20;;;;;;;1.00;0.90;;;15.10;99.90;;;;;;5056854;28;20435;-67
2023/04/01 09:07:05;;;;;;;1.00;0.80;;;15.20;99.90;;;;;;5056269;28;20982;-65
2023/04/01 09:09:50;;;;;;;4.57;0.90;;;15.30;99.90;;;;;;5056547;28;20434;-65
2023/04/01 09:12:45;;;;;;;1.03;0.63;;;15.40;99.90;;;;;;5056913;28;20563;-65
2023/04/01 09:15:36;;;;;;;1.30;1.17;;;15.50;99.90;;;;;;5056408;28;20547;-66
2023/04/01 09:18:16;;;;;;;1.70;1.00;;;15.40;99.90;;;;;;5056365;28;20424;-66
2023/04/01 09:21:03;;;;;;;1.00;0.80;;;15.50;99.90;;;;;;5056202;28;20523;-66
2023/04/01 09:23:52;;;;;;;7.00;2.03;;;15.50;99.90;;;;;;5056457;28;20434;-65
2023/04/01 09:26:34;;;;;;;1.03;0.73;;;15.50;99.90;;;;;;5055657;28;20468;-65
2023/04/01 09:29:12;;;;;;;1.83;0.83;;;15.60;99.90;;;;;;5055984;28;20432;-67
2023/04/01 09:32:04;;;;;;;3.70;0.80;;;15.70;99.90;;;;;;5056443;28;20495;-66
2023/04/01 09:34:55;;;;;;;0.90;0.73;;;15.70;99.90;;;;;;5055943;28;20435;-65
2023/04/01 09:37:35;;;;;;;1.90;0.83;;;15.80;99.90;;;;;;5051499;28;20463;-65
2023/04/01 09:40:18;;;;;;;1.03;0.77;;;15.90;99.90;;;;;;5055497;28;20432;-65
2023/04/01 09:42:50;;;;;;;1.83;0.93;;;15.90;99.90;;;;;;5055870;28;20471;-67
2023/04/01 09:45:26;;;;;;;1.97;0.80;;;16.00;99.90;;;;;;5055443;28;20468;-65
2023/04/01 09:48:08;;;;;;;1.30;0.70;;;16.10;99.90;;;;;;5055943;28;20462;-65
2023/04/01 09:50:43;;;;;;;1.17;0.70;;;16.10;99.90;;;;;;5055319;28;20424;-65
2023/04/01 09:53:29;;;;;;;1.23;0.80;;;16.10;99.90;;;;;;5055065;28;20965;-65
2023/04/01 09:56:38;;;;;;;1.00;0.80;;;16.00;99.90;;;;;;5055561;28;20821;-66
2023/04/01 09:59:33;;;;;;;1.50;1.00;;;15.80;99.90;;;;;;5055219;28;20424;-64
2023/04/01 10:02:51;;;;;;;1.50;0.83;;;15.60;99.90;;;;;;5055082;28;20417;-65
2023/04/01 10:06:04;;;;;;;3.23;0.97;;;15.50;99.90;;;;;;5055095;28;20464;-65
2023/04/01 10:09:09;;;;;;;2.00;0.90;;;15.50;99.90;;;;;;5054472;28;20444;-65
2023/04/01 10:12:09;;;;;;;2.60;1.50;;;15.50;99.90;;;;;;5055567;28;20563;-65
2023/04/01 10:14:57;;;;;;;1.17;0.70;;;15.60;99.90;;;;;;5049112;28;20938;-65
2023/04/01 10:18:00;;;;;;;3.87;1.27;;;15.50;99.90;;;;;;5056308;28;20435;-65
2023/04/01 10:20:56;;;;;;;2.77;0.77;;;15.50;99.90;;;;;;5003851;28;20538;-64
2023/04/01 10:23:39;;;;;;;1.47;0.87;;;15.50;99.90;;;;;;5055136;28;20917;-65
2023/04/01 10:26:43;;;;;;;2.13;1.00;;;15.50;99.90;;;;;;5055124;28;20551;-65
2023/04/01 10:29:38;;;;;;;1.17;0.63;;;15.40;99.90;;;;;;5054225;28;20448;-64
2023/04/01 10:32:32;;;;;;;1.13;0.90;;;15.30;99.90;;;;;;5055335;28;20946;-65
2023/04/01 10:35:27;;;;;;;1.20;0.90;;;15.20;99.90;;;;;;5055625;28;20466;-65
2023/04/01 10:38:23;;;;;;;1.60;1.00;;;15.00;99.90;;;;;;5054872;28;20425;-65
2023/04/01 10:41:29;;;;;;;1.93;0.80;;;15.00;99.90;;;;;;5054424;28;20558;-65
2023/04/01 10:44:26;;;;;;;2.40;0.83;;;14.90;99.90;;;;;;5054627;28;20444;-66
2023/04/01 10:47:19;;;;;;;1.80;1.10;;;14.80;99.90;;;;;;5054661;28;20805;-65
2023/04/01 10:50:21;;;;;;;1.90;1.03;;;14.70;99.90;;;;;;5054503;28;20507;-66
2023/04/01 10:53:24;;;;;;;2.10;1.17;;;14.70;99.90;;;;;;5054585;28;20480;-65
2023/04/01 10:56:30;;;;;;;2.70;1.10;;;14.80;99.90;;;;;;5054339;28;20467;-65
2023/04/01 10:59:33;;;;;;;1.37;0.97;;;14.80;99.90;;;;;;5054361;28;20536;-64
2023/04/01 11:02:31;;;;;;;2.37;1.07;;;14.90;99.90;;;;;;5054367;28;20792;-66
2023/04/01 11:05:34;;;;;;;1.10;0.87;;;14.90;99.90;;;;;;5053905;28;20464;-65
2023/04/01 11:08:46;;;;;;;0.87;0.70;;;15.00;99.90;;;;;;5054365;28;20801;-65
2023/04/01 11:11:51;;;;;;;3.30;2.40;;;15.10;99.90;;;;;;5029104;28;20450;-65
2023/04/01 11:14:59;;;;;;;2.70;1.30;;;15.20;99.90;;;;;;5004481;28;20439;-66
2023/04/01 11:18:02;;;;;;;2.27;0.80;;;15.30;99.90;;;;;;4953441;29;20433;-65
2023/04/01 11:21:03;;;;;;;0.80;0.70;;;15.30;99.90;;;;;;4953837;28;20466;-65
2023/04/01 11:24:11;;;;;;;1.67;1.00;;;15.20;99.90;;;;;;5027505;28;20819;-65
2023/04/01 11:26:52;;;;;;;2.60;0.90;;;15.00;99.90;;;;;;4995179;28;20495;-65
2023/04/01 11:29:44;;;;;;;2.10;1.00;;;14.90;99.90;;;;;;5053840;28;20432;-66
2023/04/01 11:32:32;;;;;;;2.10;1.20;;;14.80;99.90;;;;;;5054374;28;20464;-67
2023/04/01 11:35:27;;;;;;;2.10;1.30;;;14.70;99.90;;;;;;5054067;28;20475;-65
2023/04/01 11:38:06;;;;;;;1.17;0.97;;;14.70;99.90;;;;;;5054594;28;20452;-67
2023/04/01 11:40:42;;;;;;;2.67;1.37;;;14.70;99.90;;;;;;5054255;28;20437;-65
2023/04/01 11:43:16;;;;;;;1.23;0.80;;;14.60;99.90;;;;;;5053935;28;20944;-67
2023/04/01 11:45:50;;;;;;;1.70;1.30;;;14.70;99.90;;;;;;5053822;28;20463;-66
2023/04/01 11:48:36;;;;;;;1.83;1.40;;;14.70;99.90;;;;;;5053068;28;20425;-66
2023/04/01 11:51:43;;;;;;;2.60;1.00;;;14.80;99.90;;;;;;5054009;28;20428;-67
2023/04/01 11:54:21;;;;;;;1.03;0.90;;;15.00;99.90;;;;;;4995339;28;20877;-65
2023/04/01 11:57:06;;;;;;;1.20;0.87;;;15.20;99.90;;;;;;5053325;28;20482;-66
2023/04/01 12:00:11;;;;;;;2.10;1.10;;;15.40;99.90;;;;;;5053260;28;20428;-65
2023/04/01 12:02:48;;;;;;;1.80;1.27;;;15.60;99.90;;;;;;5049460;28;20452;-65
2023/04/01 12:05:28;;;;;;;1.30;0.93;;;15.80;99.90;;;;;;5052648;28;20472;-64
2023/04/01 12:08:14;;;;;;;1.00;0.80;;;15.70;99.90;;;;;;5053339;28;20419;-66
2023/04/01 12:10:47;;;;;;;1.23;1.13;;;15.70;99.90;;;;;;5054491;28;20527;-66
2023/04/01 12:13:32;;;;;;;1.27;1.17;;;15.60;99.90;;;;;;5052525;28;20468;-66
2023/04/01 12:16:16;;;;;;;1.97;1.03;;;15.70;99.90;;;;;;5053705;28;20500;-66
2023/04/01 12:18:50;;;;;;;1.90;1.00;;;15.80;99.90;;;;;;5053198;28;20432;-65
2023/04/01 12:21:26;;;;;;;0.77;0.60;;;15.80;99.90;;;;;;5052945;28;20434;-65
2023/04/01 12:24:10;;;;;;;2.07;1.60;;;15.70;99.90;;;;;;5052903;28;20432;-65
2023/04/01 12:26:48;;;;;;;1.80;1.30;;;15.70;99.90;;;;;;5092339;22;20519;-64
2023/04/01 12:29:38;;;;;;;3.17;2.83;;;15.80;99.90;;;;;;5078724;28;20442;-64
2023/04/01 12:32:15;;;;;;;1.23;0.80;;;16.00;99.90;;;;;;5081306;28;20459;-63
2023/04/01 12:34:58;;;;;;;1.07;0.90;;;16.20;99.90;;;;;;5082620;28;20477;-65
2023/04/01 12:37:36;;;;;;;1.47;0.70;;;16.20;98.90;;;;;;5081145;28;20459;-64
2023/04/01 12:40:25;;;;;;;1.83;0.80;;;16.00;98.50;;;;;;5081328;28;20522;-64
2023/04/01 12:43:02;;;;;;;1.63;0.93;;;15.90;98.50;;;;;;5080830;28;20834;-63
2023/04/01 12:45:31;;;;;;;0.70;0.60;;;16.00;98.60;;;;;;5081846;28;20427;-62
2023/04/01 12:48:19;;;;;;;3.30;0.77;;;16.20;98.40;;;;;;5082451;28;20535;-64
2023/04/01 12:51:18;;;;;;;1.00;0.60;;;16.40;97.50;;;;;;5081829;28;20427;-62
2023/04/01 12:54:23;;;;;;;1.47;1.10;;;16.50;96.90;;;;;;5081420;28;20483;-63
2023/04/01 12:56:58;;;;;;;1.00;0.80;;;16.50;95.90;;;;;;5080792;28;20469;-63
2023/04/01 12:59:43;;;;;;;1.20;1.03;;;16.40;96.10;;;;;;5082372;28;20434;-63
2023/04/01 13:02:20;;;;;;;1.23;1.00;;;16.30;96.50;;;;;;5081441;28;20429;-63
2023/04/01 13:05:16;;;;;;;2.17;0.93;;;16.20;96.70;;;;;;5081165;28;20427;-63
2023/04/01 13:08:07;;;;;;;1.00;0.67;;;16.10;96.60;;;;;;5080742;28;20423;-63
2023/04/01 13:10:56;;;;;;;1.83;1.70;;;16.10;96.40;;;;;;5080586;28;20832;-65
2023/04/01 13:13:45;;;;;;;1.20;0.90;;;15.90;95.90;;;;;;5081633;28;20467;-63
2023/04/01 13:16:17;;;;;;;1.17;0.80;;;15.80;96.00;;;;;;5081701;28;20463;-62
2023/04/01 13:18:57;;;;;;;1.40;0.90;;;15.60;96.40;;;;;;5084391;28;20499;-63
2023/04/01 13:21:35;;;;;;;0.83;0.80;;;15.50;96.90;;;;;;5082503;28;20462;-64
2023/04/01 13:24:11;;;;;;;2.10;1.00;;;15.40;97.90;;;;;;5084519;28;20482;-64
2023/04/01 13:26:43;;;;;;;1.53;1.30;;;15.30;98.20;;;;;;5082980;28;20502;-64
2023/04/01 13:29:17;;;;;;;1.73;0.90;;;15.30;99.00;;;;;;5083705;28;20446;-64
2023/04/01 13:31:56;;;;;;;1.10;0.80;;;15.30;99.70;;;;;;5080164;28;20434;-63
2023/04/01 13:34:36;;;;;;;2.77;1.10;;;15.50;99.90;;;;;;5080195;28;20430;-68
2023/04/01 13:37:23;;;;;;;1.03;0.80;;;15.50;99.80;;;;;;5078320;28;20459;-69
2023/04/01 13:40:03;;;;;;;3.33;1.20;;;15.30;99.90;;;;;;5078142;28;20495;-69
2023/04/01 13:42:38;;;;;;;4.00;2.00;;;15.00;99.90;;;;;;5076780;28;20975;-69
2023/04/01 13:45:15;;;;;;;4.23;1.83;;;14.90;99.90;;;;;;5076783;28;20418;-69